createdAt,value
2022-11-22T00:01:11.258Z,7.91
2022-11-22T00:03:42.680Z,7.66
2022-11-22T00:06:16.381Z,7.92
2022-11-22T00:08:59.965Z,7.92
2022-11-22T00:11:36.538Z,7.72
2022-11-22T00:14:12.342Z,7.73
2022-11-22T00:16:44.523Z,7.60
2022-11-22T00:19:18.997Z,7.87
2022-11-22T00:21:51.899Z,7.57
2022-11-22T00:24:27.468Z,7.76
2022-11-22T00:26:59.992Z,7.79
2022-11-22T00:29:31.645Z,7.97
2022-11-22T00:32:06.118Z,7.83
2022-11-22T00:34:35.593Z,7.86
2022-11-22T00:37:04.970Z,7.69
2022-11-22T00:39:34.634Z,7.87
2022-11-22T00:42:05.725Z,7.94
2022-11-22T00:44:41.894Z,7.65
2022-11-22T00:47:10.808Z,7.76
2022-11-22T00:49:39.654Z,7.99
2022-11-22T00:52:09.042Z,7.86
2022-11-22T00:54:38.112Z,8.07
2022-11-22T00:57:07.342Z,8.05
2022-11-22T00:59:36.848Z,7.82
2022-11-22T01:02:10.325Z,8.10
2022-11-22T01:04:39.013Z,8.11
2022-11-22T01:07:08.361Z,8.10
2022-11-22T01:09:37.519Z,7.98
2022-11-22T01:12:07.136Z,8.03
2022-11-22T01:14:36.603Z,8.13
2022-11-22T01:17:07.514Z,8.04
2022-11-22T01:19:36.620Z,8.21
2022-11-22T01:22:06.427Z,8.26
2022-11-22T01:24:35.666Z,8.25
2022-11-22T01:27:05.410Z,7.93
2022-11-22T01:29:34.789Z,8.23
2022-11-22T01:32:10.472Z,8.25
2022-11-22T01:34:39.745Z,7.95
2022-11-22T01:37:09.170Z,7.80
2022-11-22T01:39:38.665Z,7.91
2022-11-22T01:42:07.967Z,8.27
2022-11-22T01:44:38.671Z,8.15
2022-11-22T01:47:13.940Z,7.96
2022-11-22T01:49:48.627Z,8.14
2022-11-22T01:52:21.072Z,8.13
2022-11-22T01:54:56.488Z,8.26
2022-11-22T01:57:33.441Z,8.16
2022-11-22T02:00:13.968Z,8.04
2022-11-22T02:02:49.072Z,7.68
2022-11-22T02:05:24.888Z,7.86
2022-11-22T02:08:33.750Z,7.77
2022-11-22T02:11:22.078Z,8.11
2022-11-22T02:13:54.664Z,8.16
2022-11-22T02:16:40.034Z,7.95
2022-11-22T02:19:28.863Z,7.89
2022-11-22T02:22:14.248Z,7.95
2022-11-22T02:24:56.324Z,7.63
2022-11-22T02:27:33.787Z,7.68
2022-11-22T02:30:04.349Z,7.93
2022-11-22T02:32:46.024Z,7.68
2022-11-22T02:35:27.058Z,8.02
2022-11-22T02:38:02.579Z,8.03
2022-11-22T02:40:41.467Z,7.80
2022-11-22T02:43:17.108Z,8.27
2022-11-22T02:45:53.752Z,7.85
2022-11-22T02:48:30.340Z,8.16
2022-11-22T02:51:05.387Z,8.19
2022-11-22T02:53:42.194Z,8.12
2022-11-22T02:56:15.510Z,8.02
2022-11-22T02:58:49.101Z,8.25
2022-11-22T03:01:20.746Z,8.06
2022-11-22T03:03:53.712Z,8.15
2022-11-22T03:06:24.390Z,8.01
2022-11-22T03:08:58.173Z,7.97
2022-11-22T03:11:29.846Z,8.07
2022-11-22T03:14:02.687Z,7.99
2022-11-22T03:16:34.759Z,8.23
2022-11-22T03:19:13.003Z,8.28
2022-11-22T03:21:45.495Z,8.52
2022-11-22T03:24:22.095Z,8.52
2022-11-22T03:26:54.278Z,8.10
2022-11-22T03:29:28.759Z,8.26
2022-11-22T03:32:00.628Z,8.01
2022-11-22T03:34:35.090Z,8.36
2022-11-22T03:37:08.061Z,8.35
2022-11-22T03:39:40.766Z,8.53
2022-11-22T03:42:13.630Z,8.60
2022-11-22T03:44:50.741Z,8.63
2022-11-22T03:47:19.147Z,8.18
2022-11-22T03:49:47.043Z,8.73
2022-11-22T03:52:15.739Z,8.68
2022-11-22T03:54:44.021Z,8.63
2022-11-22T03:57:12.584Z,8.74
2022-11-22T03:59:40.621Z,8.63
2022-11-22T04:02:10.044Z,8.66
2022-11-22T04:04:38.049Z,8.98
2022-11-22T04:07:06.012Z,9.05
2022-11-22T04:09:34.418Z,8.83
2022-11-22T04:12:02.386Z,8.63
2022-11-22T04:14:47.759Z,8.93
2022-11-22T04:17:37.576Z,9.02
2022-11-22T04:20:20.045Z,8.60
2022-11-22T04:22:56.524Z,8.84
2022-11-22T05:27:51.556Z,8.75
2022-11-22T05:30:27.610Z,8.39
2022-11-22T05:33:25.628Z,8.58
2022-11-22T05:36:05.687Z,8.85
2022-11-22T05:38:38.079Z,9.01
2022-11-22T05:41:10.219Z,8.67
2022-11-22T05:43:55.460Z,8.67
2022-11-22T05:46:29.312Z,8.61
2022-11-22T05:49:05.221Z,8.53
2022-11-22T05:51:54.184Z,8.61
2022-11-22T05:54:31.622Z,8.57
2022-11-22T05:57:04.291Z,8.73
2022-11-22T05:59:44.355Z,8.39
2022-11-22T06:02:15.676Z,8.47
2022-11-22T06:04:47.969Z,8.40
2022-11-22T06:07:30.119Z,7.91
2022-11-22T06:09:58.407Z,8.17
2022-11-22T06:12:26.459Z,8.29
2022-11-22T06:14:54.436Z,8.23
2022-11-22T06:17:22.626Z,8.35
2022-11-22T06:19:50.832Z,8.30
2022-11-22T06:22:20.789Z,8.14
2022-11-22T06:24:54.919Z,8.21
2022-11-22T06:27:23.340Z,8.05
2022-11-22T06:29:51.506Z,8.28
2022-11-22T06:32:19.956Z,8.04
2022-11-22T06:34:49.359Z,7.89
2022-11-22T06:37:17.557Z,7.89
2022-11-22T06:39:46.956Z,8.03
2022-11-22T06:42:15.003Z,8.25
2022-11-22T06:44:43.204Z,8.17
2022-11-22T06:47:11.656Z,8.27
2022-11-22T06:49:39.749Z,8.03
2022-11-22T06:52:07.930Z,8.07
2022-11-22T06:54:37.754Z,8.00
2022-11-22T06:57:07.372Z,8.14
2022-11-22T06:59:36.003Z,7.86
2022-11-22T07:02:06.616Z,7.90
2022-11-22T07:04:35.109Z,7.94
2022-11-22T07:07:03.525Z,7.52
2022-11-22T07:09:31.965Z,8.06
2022-11-22T07:12:00.456Z,7.91
2022-11-22T07:14:29.848Z,7.92
2022-11-22T07:16:57.980Z,7.83
2022-11-22T07:19:26.014Z,7.83
2022-11-22T07:21:53.914Z,7.53
2022-11-22T07:24:21.822Z,7.70
2022-11-22T07:26:49.842Z,7.89
2022-11-22T07:29:17.854Z,7.91
2022-11-22T07:31:47.575Z,7.98
2022-11-22T07:34:15.865Z,8.15
2022-11-22T07:36:43.996Z,8.04
2022-11-22T07:39:12.505Z,8.14
2022-11-22T07:41:40.521Z,8.00
2022-11-22T07:44:08.577Z,8.34
2022-11-22T07:46:36.651Z,7.76
2022-11-22T07:49:08.004Z,8.15
2022-11-22T07:51:36.479Z,7.87
2022-11-22T07:54:07.900Z,8.11
2022-11-22T07:56:36.009Z,8.22
2022-11-22T07:59:04.077Z,8.15
2022-11-22T08:01:32.285Z,8.50
2022-11-22T08:04:00.921Z,8.18
2022-11-22T08:06:30.671Z,8.32
2022-11-22T08:09:02.240Z,8.23
2022-11-22T08:11:30.913Z,8.12
2022-11-22T08:13:58.919Z,8.28
2022-11-22T08:16:26.982Z,8.36
2022-11-22T08:18:54.942Z,8.77
2022-11-22T08:21:23.430Z,8.92
2022-11-22T08:23:52.664Z,8.65
2022-11-22T08:26:21.164Z,8.95
2022-11-22T08:28:49.354Z,9.01
2022-11-22T08:31:19.691Z,9.13
2022-11-22T08:33:48.188Z,9.13
2022-11-22T08:36:16.499Z,9.15
2022-11-22T08:38:44.587Z,9.23
2022-11-22T08:41:14.307Z,9.06
2022-11-22T08:43:42.509Z,9.23
2022-11-22T08:46:10.791Z,9.25
2022-11-22T08:48:39.650Z,9.22
2022-11-22T08:51:10.329Z,9.35
2022-11-22T08:53:49.389Z,9.40
2022-11-22T08:56:18.997Z,9.33
2022-11-22T08:58:46.972Z,9.50
2022-11-22T09:01:17.420Z,9.22
2022-11-22T09:03:46.226Z,9.48
2022-11-22T09:09:30.501Z,9.25
2022-11-22T09:11:58.244Z,9.20
2022-11-22T09:14:27.042Z,9.07
2022-11-22T09:16:55.768Z,9.26
2022-11-22T09:19:27.590Z,9.07
2022-11-22T09:21:56.232Z,9.51
2022-11-22T09:24:24.170Z,9.29
2022-11-22T09:26:52.443Z,9.45
2022-11-22T09:29:21.751Z,9.39
2022-11-22T09:31:52.990Z,9.59
2022-11-22T09:34:21.092Z,9.28
2022-11-22T09:36:49.158Z,9.47
2022-11-22T09:39:17.176Z,9.61
2022-11-22T09:42:12.426Z,9.43
2022-11-22T09:44:54.381Z,9.74
2022-11-22T09:47:35.975Z,9.65
2022-11-22T09:50:15.793Z,9.55
2022-11-22T09:52:49.161Z,9.40
2022-11-22T09:55:25.825Z,9.94
2022-11-22T09:58:07.711Z,9.68
2022-11-22T10:00:37.271Z,9.49
2022-11-22T10:03:13.748Z,9.82
2022-11-22T10:05:51.132Z,9.56
2022-11-22T10:08:33.819Z,9.26
2022-11-22T10:11:05.003Z,9.44
2022-11-22T10:21:18.678Z,9.64
2022-11-22T10:23:59.818Z,9.73
2022-11-22T10:30:07.109Z,9.44
2022-11-22T10:36:07.115Z,10.04
2022-11-22T10:39:04.183Z,9.77
2022-11-22T10:41:44.729Z,9.62
2022-11-22T10:44:27.678Z,9.68
2022-11-22T10:47:34.552Z,9.66
2022-11-22T10:50:51.782Z,10.00
2022-11-22T10:54:03.298Z,9.87
2022-11-22T10:57:28.222Z,10.49
2022-11-22T11:00:40.974Z,10.13
2022-11-22T11:03:44.301Z,10.44
2022-11-22T11:06:50.028Z,10.14
2022-11-22T11:10:29.325Z,9.44
2022-11-22T11:13:24.451Z,10.37
2022-11-22T11:16:01.583Z,10.41
2022-11-22T11:18:42.542Z,10.26
2022-11-22T11:21:18.315Z,10.00
2022-11-22T11:24:01.701Z,10.36
2022-11-22T11:26:37.902Z,10.54
2022-11-22T11:36:53.720Z,10.39
2022-11-22T11:39:41.916Z,10.42
2022-11-22T11:42:34.199Z,10.27
2022-11-22T11:45:34.651Z,10.55
2022-11-22T11:48:09.048Z,10.64
2022-11-22T11:50:41.023Z,10.74
2022-11-22T11:53:33.025Z,10.67
2022-11-22T11:56:58.735Z,10.16
2022-11-22T11:59:55.622Z,10.24
2022-11-22T12:02:34.855Z,10.27
2022-11-22T12:05:51.934Z,10.08
2022-11-22T12:09:05.508Z,9.90
2022-11-22T12:15:10.156Z,10.14
2022-11-22T12:17:50.873Z,10.13
2022-11-22T12:20:36.520Z,10.21
2022-11-22T12:23:37.775Z,9.96
2022-11-22T12:26:12.556Z,10.49
2022-11-22T12:29:04.607Z,10.20
2022-11-22T12:31:45.600Z,10.50
2022-11-22T12:34:30.572Z,10.53
2022-11-22T12:37:12.658Z,11.20
2022-11-22T12:40:08.474Z,10.84
2022-11-22T12:42:51.102Z,10.49
2022-11-22T12:45:31.030Z,10.42
2022-11-22T12:48:11.848Z,10.51
2022-11-22T12:50:46.929Z,10.75
2022-11-22T12:54:00.291Z,10.46
2022-11-22T12:56:38.793Z,10.91
2022-11-22T12:59:25.403Z,10.73
2022-11-22T13:02:03.348Z,10.53
2022-11-22T13:04:39.463Z,10.83
2022-11-22T13:07:16.861Z,10.63
2022-11-22T13:09:52.691Z,10.77
2022-11-22T13:12:27.414Z,11.19
2022-11-22T13:14:57.138Z,10.75
2022-11-22T13:17:32.245Z,10.75
2022-11-22T13:20:05.958Z,10.58
2022-11-22T13:22:44.834Z,10.57
2022-11-22T13:25:33.557Z,10.51
2022-11-22T13:28:07.438Z,10.55
2022-11-22T13:30:53.787Z,10.61
2022-11-22T13:33:51.483Z,10.26
2022-11-22T13:40:35.144Z,10.83
2022-11-22T13:43:56.875Z,10.51
2022-11-22T13:46:58.074Z,10.51
2022-11-22T13:50:00.114Z,10.19
2022-11-22T13:52:54.662Z,10.34
2022-11-22T13:59:56.546Z,10.46
2022-11-22T14:02:29.300Z,10.33
2022-11-22T14:05:30.153Z,9.87
2022-11-22T14:08:08.757Z,10.35
2022-11-22T14:11:05.993Z,10.04
2022-11-22T14:16:52.088Z,10.23
2022-11-22T14:19:40.896Z,10.22
2022-11-22T14:22:20.343Z,10.38
2022-11-22T14:25:23.708Z,10.66
2022-11-22T14:27:57.732Z,10.30
2022-11-22T14:30:39.936Z,10.43
2022-11-22T14:33:16.687Z,10.39
2022-11-22T14:36:16.240Z,10.29
2022-11-22T14:38:46.010Z,10.28
2022-11-22T14:41:41.716Z,10.37
2022-11-22T14:44:14.044Z,10.29
2022-11-22T14:46:54.974Z,10.56
2022-11-22T14:49:32.763Z,10.13
2022-11-22T14:52:02.681Z,10.46
2022-11-22T14:54:42.161Z,10.47
2022-11-22T14:57:20.769Z,10.23
2022-11-22T15:00:09.702Z,10.09
2022-11-22T15:03:21.340Z,10.04
2022-11-22T15:09:23.398Z,9.76
2022-11-22T15:09:46.444Z,9.99
2022-11-22T15:12:38.739Z,9.99
2022-11-22T15:57:29.005Z,9.54
2022-11-22T15:59:59.460Z,9.39
2022-11-22T16:02:37.526Z,9.31
2022-11-22T16:06:07.398Z,9.45
2022-11-22T16:08:07.910Z,9.74
2022-11-22T16:10:44.076Z,9.49
2022-11-22T16:13:36.954Z,9.54
2022-11-22T16:16:20.246Z,9.77
2022-11-22T16:18:50.855Z,9.84
2022-11-22T16:21:25.238Z,9.81
2022-11-22T16:24:17.480Z,9.68
2022-11-22T16:26:56.357Z,9.67
2022-11-22T16:29:32.311Z,9.79
2022-11-22T16:32:02.620Z,9.72
2022-11-22T16:34:32.444Z,9.82
2022-11-22T16:37:00.614Z,9.70
2022-11-22T16:39:29.297Z,9.48
2022-11-22T16:41:58.121Z,9.76
2022-11-22T16:44:26.441Z,9.67
2022-11-22T16:46:54.858Z,9.63
2022-11-22T16:49:23.708Z,9.76
2022-11-22T16:52:12.132Z,9.77
2022-11-22T16:55:17.104Z,9.96
2022-11-22T16:57:49.279Z,9.53
2022-11-22T17:00:28.585Z,9.52
2022-11-22T17:03:05.621Z,9.56
2022-11-22T17:05:39.623Z,9.49
2022-11-22T17:11:03.192Z,9.35
2022-11-22T17:13:32.916Z,9.49
2022-11-22T17:16:02.084Z,9.40
2022-11-22T17:18:30.703Z,9.64
2022-11-22T17:21:00.227Z,9.33
2022-11-22T17:23:33.131Z,9.67
2022-11-22T17:26:01.110Z,9.37
2022-11-22T17:28:29.113Z,9.76
2022-11-22T17:33:41.696Z,9.68
2022-11-22T17:36:21.535Z,9.61
2022-11-22T17:38:50.813Z,9.57
2022-11-22T17:41:19.606Z,9.65
2022-11-22T17:43:50.225Z,9.56
2022-11-22T17:46:22.307Z,9.37
2022-11-22T17:49:15.688Z,9.22
2022-11-22T17:53:12.255Z,9.65
2022-11-22T17:56:10.123Z,9.16
2022-11-22T17:59:14.100Z,9.62
2022-11-22T18:01:43.933Z,9.58
2022-11-22T18:04:15.193Z,9.84
2022-11-22T18:06:46.327Z,9.24
2022-11-22T18:09:22.681Z,9.54
2022-11-22T18:11:56.258Z,9.46
2022-11-22T18:14:35.593Z,9.58
2022-11-22T18:17:08.918Z,9.44
2022-11-22T18:19:45.019Z,9.12
2022-11-22T18:22:21.444Z,9.31
2022-11-22T18:24:53.008Z,9.25
2022-11-22T18:27:22.573Z,9.37
2022-11-22T18:29:50.757Z,9.28
2022-11-22T18:32:18.711Z,9.54
2022-11-22T18:34:47.709Z,9.19
2022-11-22T18:37:15.646Z,9.11
2022-11-22T18:39:43.553Z,9.22
2022-11-22T18:42:14.629Z,9.29
2022-11-22T18:44:44.240Z,9.38
2022-11-22T18:47:12.082Z,9.23
2022-11-22T18:49:40.060Z,9.28
2022-11-22T18:52:11.898Z,9.33
2022-11-22T18:54:43.889Z,9.33
2022-11-22T18:57:11.835Z,9.19
2022-11-22T18:59:39.683Z,9.37
2022-11-22T19:02:09.155Z,9.49
2022-11-22T19:04:37.357Z,9.55
2022-11-22T19:07:05.699Z,9.46
2022-11-22T19:09:33.659Z,9.19
2022-11-22T19:12:01.775Z,9.43
2022-11-22T19:14:30.241Z,9.32
2022-11-22T19:17:01.405Z,9.39
2022-11-22T19:19:35.411Z,9.36
2022-11-22T19:22:11.802Z,9.23
2022-11-22T19:24:47.523Z,9.23
2022-11-22T19:27:18.175Z,9.12
2022-11-22T19:29:50.971Z,9.02
2022-11-22T19:32:19.060Z,9.21
2022-11-22T19:34:48.394Z,9.20
2022-11-22T19:37:16.690Z,9.22
2022-11-22T19:39:44.637Z,8.86
2022-11-22T19:42:13.102Z,8.94
2022-11-22T19:44:41.050Z,9.33
2022-11-22T19:47:09.037Z,8.28
2022-11-22T19:49:37.058Z,8.18
2022-11-22T19:52:06.465Z,8.27
2022-11-22T19:54:34.593Z,8.34
2022-11-22T19:57:02.496Z,8.16
2022-11-22T19:59:32.100Z,8.21
2022-11-22T20:02:02.150Z,8.07
2022-11-22T20:04:30.219Z,7.99
2022-11-22T20:06:59.869Z,7.98
2022-11-22T20:09:29.472Z,7.91
2022-11-22T20:11:57.610Z,7.97
2022-11-22T20:14:27.838Z,7.87
2022-11-22T20:16:56.419Z,7.81
2022-11-22T20:19:31.142Z,7.86
2022-11-22T20:22:03.814Z,7.78
2022-11-22T20:24:34.449Z,7.61
2022-11-22T20:27:03.707Z,7.63
2022-11-22T20:29:35.098Z,7.67
2022-11-22T20:32:05.328Z,7.75
2022-11-22T20:34:36.892Z,7.72
2022-11-22T20:37:09.676Z,7.74
2022-11-22T20:43:21.782Z,7.27
2022-11-22T20:46:01.654Z,7.49
2022-11-22T20:48:30.517Z,7.30
2022-11-22T20:50:59.526Z,7.59
2022-11-22T20:56:17.726Z,7.45
2022-11-22T20:58:55.524Z,7.43
2022-11-22T21:01:28.366Z,7.43
2022-11-22T21:03:58.690Z,7.29
2022-11-22T21:06:33.529Z,7.57
2022-11-22T21:09:06.159Z,7.41
2022-11-22T21:11:35.628Z,7.67
2022-11-22T21:14:07.607Z,7.42
2022-11-22T21:16:39.009Z,7.56
2022-11-22T21:19:10.033Z,7.41
2022-11-22T21:21:44.955Z,7.52
2022-11-22T21:24:23.402Z,7.40
2022-11-22T21:27:05.426Z,7.72
2022-11-22T21:29:39.870Z,7.53
2022-11-22T21:32:22.262Z,7.36
2022-11-22T21:35:45.891Z,7.81
2022-11-22T21:38:37.805Z,7.73
2022-11-22T21:41:39.215Z,7.39
2022-11-22T21:47:06.061Z,7.50
2022-11-22T21:49:43.579Z,7.77
2022-11-22T21:52:29.113Z,7.60
2022-11-22T21:55:02.375Z,7.52
2022-11-22T21:57:40.358Z,7.64
2022-11-22T22:00:18.102Z,7.73
2022-11-22T22:03:35.764Z,7.79
2022-11-22T22:06:33.726Z,7.80
2022-11-22T22:09:08.609Z,7.52
2022-11-22T22:19:48.250Z,7.89
2022-11-22T22:25:11.475Z,7.95
2022-11-22T22:27:41.674Z,7.56
2022-11-22T22:30:16.568Z,8.06
2022-11-22T22:32:47.135Z,7.96
2022-11-22T22:38:25.771Z,8.25
2022-11-22T22:46:35.185Z,8.05
2022-11-22T22:49:05.224Z,8.38
2022-11-22T22:51:37.241Z,8.38
2022-11-22T22:54:11.757Z,8.20
2022-11-22T22:56:43.934Z,8.47
2022-11-22T22:59:15.882Z,8.53
2022-11-22T23:01:46.803Z,8.56
2022-11-22T23:04:16.037Z,8.16
2022-11-22T23:06:45.350Z,8.30
2022-11-22T23:09:16.319Z,8.31
2022-11-22T23:14:59.166Z,8.61
2022-11-22T23:17:34.860Z,8.63
2022-11-22T23:20:08.493Z,8.63
2022-11-22T23:22:38.274Z,8.18
2022-11-22T23:25:09.426Z,8.49
2022-11-22T23:27:44.447Z,8.19
2022-11-22T23:30:14.558Z,8.58
2022-11-22T23:32:45.699Z,8.29
2022-11-22T23:38:08.571Z,8.38
2022-11-22T23:40:44.839Z,8.42
2022-11-22T23:46:18.506Z,8.30
2022-11-22T23:48:56.722Z,8.47
2022-11-22T23:51:31.556Z,8.36
2022-11-22T23:54:02.038Z,8.27
